createdAt,value
2018-02-19T00:00:46.336Z,11.10
2018-02-19T00:03:15.381Z,11.63
2018-02-19T00:05:43.639Z,11.13
2018-02-19T00:08:11.902Z,11.30
2018-02-19T00:10:40.956Z,11.53
2018-02-19T00:13:09.240Z,10.33
2018-02-19T00:15:37.519Z,11.37
2018-02-19T00:18:05.790Z,10.17
2018-02-19T00:20:34.050Z,11.37
2018-02-19T00:23:02.329Z,10.57
2018-02-19T00:25:30.622Z,10.63
2018-02-19T00:27:58.894Z,9.93
2018-02-19T00:30:27.180Z,10.57
2018-02-19T00:32:55.432Z,10.90
2018-02-19T00:35:23.721Z,11.53
2018-02-19T00:37:51.991Z,10.57
2018-02-19T00:40:20.270Z,10.20
2018-02-19T00:42:48.547Z,10.10
2018-02-19T00:45:17.380Z,10.03
2018-02-19T00:47:46.413Z,10.40
2018-02-19T00:50:14.672Z,9.47
2018-02-19T00:52:43.693Z,9.83
2018-02-19T00:55:11.973Z,8.63
2018-02-19T00:57:41.005Z,8.23
2018-02-19T01:00:09.283Z,9.73
2018-02-19T01:02:37.538Z,8.83
2018-02-19T01:05:05.821Z,9.60
2018-02-19T01:07:34.072Z,8.63
2018-02-19T01:10:03.103Z,9.03
2018-02-19T01:12:31.370Z,9.63
2018-02-19T01:14:59.661Z,11.07
2018-02-19T01:17:27.904Z,10.07
2018-02-19T01:19:56.176Z,11.20
2018-02-19T01:22:25.212Z,10.07
2018-02-19T01:24:53.489Z,11.17
2018-02-19T01:27:22.513Z,11.47
2018-02-19T01:29:50.789Z,11.17
2018-02-19T01:32:19.843Z,11.23
2018-02-19T01:34:48.133Z,10.73
2018-02-19T01:37:16.382Z,11.23
2018-02-19T01:39:44.640Z,10.70
2018-02-19T01:42:12.916Z,11.33
2018-02-19T01:44:41.190Z,10.30
2018-02-19T01:47:09.462Z,11.43
2018-02-19T01:49:37.724Z,11.27
2018-02-19T01:52:06.007Z,10.67
2018-02-19T01:54:35.024Z,10.97
2018-02-19T01:57:03.310Z,12.43
2018-02-19T01:59:31.577Z,11.53
2018-02-19T02:02:00.631Z,10.70
2018-02-19T02:04:28.881Z,11.80
2018-02-19T02:06:57.932Z,10.77
2018-02-19T02:09:26.183Z,11.20
2018-02-19T02:11:54.473Z,11.43
2018-02-19T02:14:22.748Z,11.50
2018-02-19T02:16:51.796Z,11.33
2018-02-19T02:19:20.096Z,10.73
2018-02-19T02:21:48.375Z,10.63
2018-02-19T02:24:16.639Z,10.13
2018-02-19T02:26:44.936Z,10.67
2018-02-19T02:29:13.205Z,9.77
2018-02-19T02:31:42.261Z,10.77
2018-02-19T02:34:10.516Z,11.00
2018-02-19T02:36:38.791Z,9.93
2018-02-19T02:39:07.067Z,10.03
2018-02-19T02:41:36.119Z,9.77
2018-02-19T02:44:04.393Z,10.93
2018-02-19T02:46:32.686Z,10.03
2018-02-19T02:49:00.961Z,11.83
2018-02-19T02:51:29.826Z,9.70
2018-02-19T02:53:58.878Z,11.03
2018-02-19T02:56:27.163Z,9.97
2018-02-19T02:58:55.442Z,10.87
2018-02-19T03:01:24.501Z,9.87
2018-02-19T03:03:52.764Z,10.47
2018-02-19T03:06:21.055Z,9.40
2018-02-19T03:08:49.333Z,9.80
2018-02-19T03:11:17.622Z,10.93
2018-02-19T03:13:45.915Z,10.00
2018-02-19T03:16:14.184Z,10.17
2018-02-19T03:18:43.235Z,10.27
2018-02-19T03:21:11.501Z,11.10
2018-02-19T03:23:39.781Z,9.93
2018-02-19T03:26:08.054Z,10.13
2018-02-19T03:28:37.104Z,9.60
2018-02-19T03:31:05.381Z,11.20
2018-02-19T03:33:33.656Z,10.17
2018-02-19T03:36:01.957Z,10.17
2018-02-19T03:38:30.244Z,11.43
2018-02-19T03:40:58.513Z,11.13
2018-02-19T03:43:27.575Z,10.97
2018-02-19T03:45:55.853Z,10.77
2018-02-19T03:48:24.165Z,9.97
2018-02-19T03:50:52.428Z,10.37
2018-02-19T03:53:21.496Z,10.20
2018-02-19T03:55:49.773Z,10.23
2018-02-19T03:58:18.812Z,10.17
2018-02-19T04:00:47.100Z,11.03
2018-02-19T04:03:15.380Z,10.17
2018-02-19T04:05:43.639Z,10.77
2018-02-19T04:08:12.677Z,10.57
2018-02-19T04:10:40.952Z,10.60
2018-02-19T04:13:09.236Z,9.13
2018-02-19T04:15:37.491Z,10.00
2018-02-19T04:18:05.766Z,9.97
2018-02-19T04:20:34.019Z,10.10
2018-02-19T04:23:02.299Z,10.40
2018-02-19T04:25:30.567Z,8.87
2018-02-19T04:27:58.862Z,9.73
2018-02-19T04:30:27.908Z,9.73
2018-02-19T04:32:56.175Z,9.20
2018-02-19T04:35:24.471Z,9.53
2018-02-19T04:37:52.746Z,10.07
2018-02-19T04:40:21.029Z,9.37
2018-02-19T04:42:51.385Z,9.43
2018-02-19T04:45:19.652Z,10.13
2018-02-19T04:47:48.687Z,9.07
2018-02-19T04:50:16.968Z,9.30
2018-02-19T04:52:45.245Z,9.03
2018-02-19T04:55:14.281Z,9.30
2018-02-19T04:57:42.558Z,9.27
2018-02-19T05:00:11.865Z,9.30
2018-02-19T05:02:40.140Z,9.53
2018-02-19T05:05:09.193Z,10.50
2018-02-19T05:07:37.477Z,9.13
2018-02-19T05:10:05.753Z,7.70
2018-02-19T05:12:34.021Z,8.83
2018-02-19T05:15:02.303Z,8.77
2018-02-19T05:17:31.353Z,8.33
2018-02-19T05:19:59.626Z,8.40
2018-02-19T05:22:27.901Z,7.97
2018-02-19T05:24:56.179Z,8.90
2018-02-19T05:27:25.214Z,8.47
2018-02-19T05:29:53.515Z,8.80
2018-02-19T05:32:21.784Z,8.93
2018-02-19T05:34:50.068Z,8.30
2018-02-19T05:37:18.346Z,9.20
2018-02-19T05:39:47.394Z,8.50
2018-02-19T05:42:15.671Z,8.27
2018-02-19T05:44:43.960Z,9.03
2018-02-19T05:47:12.223Z,8.93
2018-02-19T05:49:41.583Z,8.53
2018-02-19T05:52:10.009Z,8.57
2018-02-19T05:54:39.253Z,8.97
2018-02-19T05:57:07.551Z,8.87
2018-02-19T05:59:35.859Z,7.53
2018-02-19T06:02:04.389Z,8.20
2018-02-19T06:04:33.267Z,9.27
2018-02-19T06:07:02.439Z,9.23
2018-02-19T06:09:30.949Z,8.10
2018-02-19T06:11:59.499Z,8.80
2018-02-19T06:14:27.800Z,9.23
2018-02-19T06:16:56.300Z,9.73
2018-02-19T06:19:24.620Z,9.43
2018-02-19T06:21:52.989Z,10.20
2018-02-19T06:24:21.340Z,9.37
2018-02-19T06:26:49.661Z,9.90
2018-02-19T06:29:18.657Z,8.77
2018-02-19T06:31:47.917Z,10.20
2018-02-19T06:34:16.239Z,8.73
2018-02-19T06:36:45.324Z,9.33
2018-02-19T06:39:13.618Z,8.63
2018-02-19T06:41:42.652Z,10.30
2018-02-19T06:44:11.809Z,9.00
2018-02-19T06:46:40.161Z,9.77
2018-02-19T06:49:08.448Z,10.23
2018-02-19T06:51:37.500Z,9.57
2018-02-19T06:54:05.772Z,8.50
2018-02-19T06:56:34.243Z,9.83
2018-02-19T06:59:03.332Z,9.20
2018-02-19T07:01:31.707Z,8.93
2018-02-19T07:03:59.991Z,9.03
2018-02-19T07:06:28.530Z,8.07
2018-02-19T07:08:58.162Z,8.40
2018-02-19T07:11:27.330Z,9.27
2018-02-19T07:13:55.641Z,8.97
2018-02-19T07:16:24.687Z,9.17
2018-02-19T07:18:53.100Z,9.57
2018-02-19T07:21:21.456Z,9.27
2018-02-19T07:23:49.778Z,9.10
2018-02-19T07:26:18.351Z,7.53
2018-02-19T07:28:46.677Z,7.97
2018-02-19T07:31:14.956Z,9.10
2018-02-19T07:33:43.254Z,9.03
2018-02-19T07:36:11.635Z,8.73
2018-02-19T07:38:39.920Z,9.40
2018-02-19T07:41:08.202Z,9.07
2018-02-19T07:43:36.536Z,8.90
2018-02-19T07:46:05.996Z,9.63
2018-02-19T07:48:34.360Z,9.40
2018-02-19T07:51:03.520Z,7.47
2018-02-19T07:53:32.130Z,9.50
2018-02-19T07:56:00.391Z,9.57
2018-02-19T07:58:28.790Z,9.80
2018-02-19T08:00:57.362Z,10.57
2018-02-19T08:03:25.701Z,11.00
2018-02-19T08:05:54.223Z,9.87
2018-02-19T08:08:23.569Z,9.83
2018-02-19T08:10:51.935Z,10.93
2018-02-19T08:13:20.612Z,9.97
2018-02-19T08:15:49.989Z,11.23
2018-02-19T08:18:18.342Z,9.53
2018-02-19T08:20:46.754Z,9.27
2018-02-19T08:23:15.020Z,9.37
2018-02-19T08:25:43.288Z,9.77
2018-02-19T08:28:13.179Z,8.67
2018-02-19T08:30:41.934Z,9.47
2018-02-19T08:33:10.733Z,10.10
2018-02-19T08:35:39.094Z,9.60
2018-02-19T08:38:07.450Z,9.63
2018-02-19T08:40:35.873Z,9.50
2018-02-19T08:43:04.147Z,9.80
2018-02-19T08:45:32.565Z,8.77
2018-02-19T08:48:00.816Z,8.47
2018-02-19T08:50:29.893Z,8.87
2018-02-19T08:52:58.275Z,9.00
2018-02-19T08:55:26.613Z,9.57
2018-02-19T08:57:55.240Z,9.30
2018-02-19T09:00:24.558Z,9.40
2018-02-19T09:02:53.138Z,8.47
2018-02-19T09:05:21.791Z,9.73
2018-02-19T09:07:50.333Z,11.27
2018-02-19T09:10:19.899Z,11.33
2018-02-19T09:12:48.268Z,9.90
2018-02-19T09:15:18.189Z,10.10
2018-02-19T09:17:46.687Z,10.20
2018-02-19T09:20:15.859Z,10.33
2018-02-19T09:22:44.187Z,10.70
2018-02-19T09:25:13.408Z,10.57
2018-02-19T09:27:41.702Z,9.00
2018-02-19T09:30:09.982Z,10.30
2018-02-19T09:32:38.484Z,10.33
2018-02-19T09:35:06.843Z,9.77
2018-02-19T09:37:35.283Z,10.33
2018-02-19T09:40:03.868Z,10.60
2018-02-19T09:42:32.291Z,10.07
2018-02-19T09:45:00.732Z,11.93
2018-02-19T09:47:29.125Z,12.60
2018-02-19T09:49:58.255Z,10.73
2018-02-19T09:52:26.520Z,11.97
2018-02-19T09:54:55.589Z,10.97
2018-02-19T09:57:24.617Z,12.23
2018-02-19T09:59:52.932Z,11.40
2018-02-19T10:02:22.070Z,12.93
2018-02-19T10:04:50.426Z,10.13
2018-02-19T10:07:19.554Z,11.70
2018-02-19T10:09:49.130Z,10.57
2018-02-19T10:12:17.396Z,11.47
2018-02-19T10:14:45.800Z,12.20
2018-02-19T10:17:14.073Z,10.97
2018-02-19T10:19:42.328Z,11.97
2018-02-19T10:22:10.663Z,10.63
2018-02-19T10:24:38.942Z,11.10
2018-02-19T10:27:07.233Z,10.17
2018-02-19T10:29:35.498Z,11.13
2018-02-19T10:32:03.775Z,10.30
2018-02-19T10:34:32.035Z,9.83
2018-02-19T10:37:00.311Z,10.70
2018-02-19T10:39:28.559Z,11.17
2018-02-19T10:41:56.839Z,11.00
2018-02-19T10:44:25.107Z,10.80
2018-02-19T10:46:54.150Z,11.80
2018-02-19T10:49:22.424Z,9.87
2018-02-19T10:51:50.718Z,10.87
2018-02-19T10:54:18.995Z,10.27
2018-02-19T10:56:47.261Z,10.80
2018-02-19T10:59:16.304Z,11.60
2018-02-19T11:01:44.609Z,12.73
2018-02-19T11:04:19.577Z,11.60
2018-02-19T11:06:47.899Z,10.70
2018-02-19T11:09:16.930Z,12.00
2018-02-19T11:11:45.205Z,11.90
2018-02-19T11:14:13.483Z,11.10
2018-02-19T11:16:42.551Z,12.37
2018-02-19T11:19:10.813Z,10.30
2018-02-19T11:21:39.124Z,10.60
2018-02-19T11:24:07.468Z,10.43
2018-02-19T11:26:35.723Z,10.40
2018-02-19T11:29:03.992Z,11.10
2018-02-19T11:31:33.057Z,11.77
2018-02-19T11:34:01.489Z,11.67
2018-02-19T11:36:30.045Z,11.53
2018-02-19T11:38:58.977Z,10.90
2018-02-19T11:41:27.661Z,11.87
2018-02-19T11:43:56.053Z,11.00
2018-02-19T11:46:25.483Z,11.70
2018-02-19T11:48:53.896Z,10.70
2018-02-19T11:51:23.116Z,11.40
2018-02-19T11:53:51.754Z,9.53
2018-02-19T11:56:20.144Z,11.97
2018-02-19T11:58:48.711Z,10.67
2018-02-19T12:01:17.048Z,9.90
2018-02-19T12:03:45.663Z,10.57
2018-02-19T12:06:14.219Z,9.97
2018-02-19T12:08:43.349Z,9.83
2018-02-19T12:11:12.743Z,10.13
2018-02-19T12:13:42.075Z,10.63
2018-02-19T12:16:10.669Z,10.00
2018-02-19T12:18:38.970Z,10.43
2018-02-19T12:21:07.339Z,10.17
2018-02-19T12:23:35.830Z,10.60
2018-02-19T12:26:05.034Z,11.23
2018-02-19T12:28:34.168Z,10.27
2018-02-19T12:31:02.616Z,9.90
2018-02-19T12:33:31.152Z,9.80
2018-02-19T12:35:59.619Z,10.37
2018-02-19T12:38:29.051Z,9.70
2018-02-19T12:40:58.371Z,9.53
2018-02-19T12:43:26.677Z,10.63
2018-02-19T12:45:54.998Z,9.53
2018-02-19T12:48:23.487Z,10.03
2018-02-19T12:50:51.812Z,10.43
2018-02-19T12:53:20.092Z,9.70
2018-02-19T12:55:49.469Z,10.33
2018-02-19T12:58:17.982Z,10.43
2018-02-19T13:00:47.061Z,9.17
2018-02-19T13:03:15.414Z,9.73
2018-02-19T13:05:43.697Z,10.57
2018-02-19T13:08:12.817Z,9.17
2018-02-19T13:10:41.088Z,10.43
2018-02-19T13:13:09.465Z,10.80
2018-02-19T13:15:38.173Z,10.10
2018-02-19T13:18:06.795Z,10.97
2018-02-19T13:20:35.114Z,10.27
2018-02-19T13:23:03.420Z,9.63
2018-02-19T13:25:31.801Z,9.37
2018-02-19T13:28:00.067Z,10.90
2018-02-19T13:30:29.196Z,10.63
2018-02-19T13:32:58.454Z,9.80
2018-02-19T13:35:27.580Z,10.47
2018-02-19T13:37:56.767Z,11.33
2018-02-19T13:40:25.139Z,10.60
2018-02-19T13:42:54.218Z,10.53
2018-02-19T13:45:22.492Z,10.27
2018-02-19T13:47:51.003Z,9.87
2018-02-19T13:50:19.270Z,9.97
2018-02-19T13:52:47.783Z,10.30
2018-02-19T13:55:16.407Z,9.70
2018-02-19T13:57:44.736Z,10.87
2018-02-19T14:00:13.174Z,10.83
2018-02-19T14:02:41.751Z,11.10
2018-02-19T14:05:11.004Z,10.53
2018-02-19T14:07:39.405Z,10.83
2018-02-19T14:10:07.749Z,11.03
2018-02-19T14:12:36.045Z,11.27
2018-02-19T14:15:04.345Z,10.47
2018-02-19T14:17:32.743Z,10.83
2018-02-19T14:20:01.424Z,10.17
2018-02-19T14:22:29.787Z,10.37
2018-02-19T14:24:58.105Z,11.00
2018-02-19T14:27:26.407Z,11.33
2018-02-19T14:29:54.737Z,10.03
2018-02-19T14:32:23.768Z,10.00
2018-02-19T14:34:52.337Z,10.83
2018-02-19T14:37:21.946Z,10.10
2018-02-19T14:39:50.466Z,10.40
2018-02-19T14:42:19.531Z,11.17
2018-02-19T14:44:47.914Z,10.13
2018-02-19T14:47:16.386Z,12.20
2018-02-19T14:49:45.753Z,12.10
2018-02-19T14:52:14.321Z,12.20
2018-02-19T14:54:42.791Z,10.53
2018-02-19T14:57:11.154Z,11.40
2018-02-19T14:59:41.103Z,11.03
2018-02-19T15:02:10.027Z,11.23
2018-02-19T15:04:38.506Z,11.10
2018-02-19T15:07:06.946Z,12.20
2018-02-19T15:09:36.058Z,12.67
2018-02-19T15:12:04.478Z,10.67
2018-02-19T15:14:32.820Z,12.17
2018-02-19T15:17:01.123Z,10.53
2018-02-19T15:19:29.489Z,13.10
2018-02-19T15:21:58.084Z,13.13
2018-02-19T15:24:27.236Z,13.40
2018-02-19T15:26:56.464Z,13.20
2018-02-19T15:29:25.787Z,13.27
2018-02-19T15:31:54.529Z,13.07
2018-02-19T15:34:23.286Z,12.40
2018-02-19T15:36:52.023Z,12.93
2018-02-19T15:39:20.415Z,13.47
2018-02-19T15:41:49.754Z,14.00
2018-02-19T15:44:18.312Z,12.90
2018-02-19T15:46:48.241Z,13.17
2018-02-19T15:49:17.430Z,12.87
2018-02-19T15:51:46.035Z,14.77
2018-02-19T15:54:14.569Z,14.97
2018-02-19T15:56:42.881Z,13.63
2018-02-19T15:59:11.932Z,12.50
2018-02-19T16:01:40.230Z,14.30
2018-02-19T16:04:08.500Z,12.87
2018-02-19T16:06:36.996Z,14.03
2018-02-19T16:09:05.353Z,12.87
2018-02-19T16:11:33.658Z,13.53
2018-02-19T16:14:01.969Z,13.97
2018-02-19T16:16:30.926Z,11.97
2018-02-19T16:18:59.669Z,11.97
2018-02-19T16:21:27.970Z,13.77
2018-02-19T16:23:56.382Z,14.07
2018-02-19T16:26:24.732Z,13.03
2018-02-19T16:28:53.756Z,12.20
2018-02-19T16:31:22.995Z,13.93
2018-02-19T16:33:51.248Z,13.03
2018-02-19T16:36:20.399Z,13.03
2018-02-19T16:38:48.805Z,13.87
2018-02-19T16:41:17.220Z,13.63
2018-02-19T16:43:45.660Z,14.33
2018-02-19T16:46:14.014Z,13.90
2018-02-19T16:48:43.147Z,14.50
2018-02-19T16:51:11.579Z,14.17
2018-02-19T16:53:39.909Z,12.93
2018-02-19T16:56:08.973Z,13.00
2018-02-19T16:58:37.413Z,13.70
2018-02-19T17:01:06.617Z,14.00
2018-02-19T17:03:34.914Z,13.77
2018-02-19T17:06:04.078Z,15.60
2018-02-19T17:08:33.473Z,15.47
2018-02-19T17:11:01.937Z,14.80
2018-02-19T17:13:31.267Z,13.87
2018-02-19T17:15:59.908Z,15.03
2018-02-19T17:18:28.266Z,14.27
2018-02-19T17:20:56.984Z,15.30
2018-02-19T17:23:25.443Z,13.80
2018-02-19T17:25:54.657Z,15.10
2018-02-19T17:28:23.225Z,14.50
2018-02-19T17:30:52.402Z,14.83
2018-02-19T17:33:20.951Z,13.00
2018-02-19T17:35:54.053Z,12.50
2018-02-19T17:38:22.580Z,13.40
2018-02-19T17:40:51.028Z,12.67
2018-02-19T17:45:55.613Z,13.67
2018-02-19T17:48:24.384Z,13.63
2018-02-19T17:50:52.828Z,13.90
2018-02-19T17:53:21.253Z,12.57
2018-02-19T17:55:49.525Z,14.43
2018-02-19T17:58:17.905Z,12.77
2018-02-19T18:00:46.296Z,14.57
2018-02-19T18:03:14.571Z,13.67
2018-02-19T18:05:42.995Z,13.53
2018-02-19T18:08:11.542Z,15.43
2018-02-19T18:10:40.100Z,15.17
2018-02-19T18:13:09.153Z,13.87
2018-02-19T18:15:38.658Z,13.50
2018-02-19T18:18:07.175Z,12.43
2018-02-19T18:20:35.573Z,14.63
2018-02-19T18:23:04.110Z,14.00
2018-02-19T18:25:33.893Z,15.07
2018-02-19T18:28:02.246Z,14.53
2018-02-19T18:30:31.324Z,14.30
2018-02-19T18:32:59.862Z,13.97
2018-02-19T18:35:28.951Z,13.67
2018-02-19T18:37:57.338Z,14.93
2018-02-19T18:40:25.701Z,12.07
2018-02-19T18:42:54.011Z,13.57
2018-02-19T18:45:22.292Z,13.07
2018-02-19T18:47:50.828Z,14.10
2018-02-19T18:50:20.045Z,13.57
2018-02-19T18:52:49.223Z,14.60
2018-02-19T18:55:18.295Z,13.53
2018-02-19T18:57:46.715Z,13.03
2018-02-19T19:00:15.127Z,14.63
2018-02-19T19:02:44.181Z,14.70
2018-02-19T19:05:12.512Z,13.83
2018-02-19T19:07:58.436Z,15.10
2018-02-19T19:13:38.360Z,16.07
2018-02-19T19:16:06.697Z,17.13
2018-02-19T19:18:35.271Z,15.17
2018-02-19T19:21:04.437Z,13.93
2018-02-19T19:23:33.513Z,13.90
2018-02-19T19:26:02.050Z,13.20
2018-02-19T19:28:31.293Z,12.97
2018-02-19T19:30:59.570Z,16.30
2018-02-19T19:33:28.073Z,14.60
2018-02-19T19:35:56.417Z,16.07
2018-02-19T19:38:24.770Z,15.10
2018-02-19T19:40:53.153Z,14.93
2018-02-19T19:43:21.728Z,14.67
2018-02-19T19:45:50.049Z,14.20
2018-02-19T19:48:18.400Z,14.23
2018-02-19T19:50:46.800Z,14.17
2018-02-19T19:53:15.135Z,14.07
2018-02-19T19:55:43.406Z,13.27
2018-02-19T19:58:11.758Z,15.67
2018-02-19T20:00:40.853Z,14.10
2018-02-19T20:03:09.276Z,14.30
2018-02-19T20:05:38.995Z,14.90
2018-02-19T20:08:08.257Z,14.83
2018-02-19T20:10:36.811Z,12.57
2018-02-19T20:13:05.227Z,15.20
2018-02-19T20:15:33.673Z,13.63
2018-02-19T20:18:02.756Z,15.50
2018-02-19T20:20:31.123Z,13.70
2018-02-19T20:23:00.295Z,12.90
2018-02-19T20:25:28.663Z,13.73
2018-02-19T20:27:57.872Z,15.13
2018-02-19T20:30:26.911Z,14.50
2018-02-19T20:32:55.254Z,13.43
2018-02-19T20:35:24.420Z,13.07
2018-02-19T20:37:53.141Z,13.53
2018-02-19T20:40:21.553Z,13.03
2018-02-19T20:42:49.857Z,13.47
2018-02-19T20:45:18.348Z,13.50
2018-02-19T20:47:46.690Z,13.50
2018-02-19T20:50:15.020Z,12.63
2018-02-19T20:52:43.353Z,14.43
2018-02-19T20:55:11.742Z,14.43
2018-02-19T20:57:40.123Z,14.37
2018-02-19T21:00:08.569Z,13.23
2018-02-19T21:02:36.952Z,12.43
2018-02-19T21:05:05.261Z,13.90
2018-02-19T21:07:33.551Z,14.00
2018-02-19T21:10:01.996Z,13.57
2018-02-19T21:12:30.437Z,13.10
2018-02-19T21:14:58.823Z,14.67
2018-02-19T21:17:27.103Z,14.83
2018-02-19T21:19:55.696Z,13.97
2018-02-19T21:22:23.961Z,14.27
2018-02-19T21:24:52.296Z,13.70
2018-02-19T21:27:20.729Z,12.53
2018-02-19T21:29:49.080Z,12.63
2018-02-19T21:32:17.571Z,13.93
2018-02-19T21:34:46.080Z,12.33
2018-02-19T21:37:15.297Z,12.27
2018-02-19T21:39:44.907Z,15.93
2018-02-19T21:42:13.360Z,13.37
2018-02-19T21:44:42.815Z,13.43
2018-02-19T21:47:11.365Z,13.57
2018-02-19T21:49:40.464Z,14.20
2018-02-19T21:52:08.793Z,13.37
2018-02-19T21:54:37.082Z,14.67
2018-02-19T21:57:05.600Z,12.17
2018-02-19T21:59:34.240Z,14.87
2018-02-19T22:02:02.995Z,14.73
2018-02-19T22:04:31.314Z,12.83
2018-02-19T22:07:00.205Z,15.93
2018-02-19T22:09:28.677Z,13.40
2018-02-19T22:11:58.543Z,13.77
2018-02-19T22:14:27.323Z,13.37
2018-02-19T22:16:56.501Z,13.27
2018-02-19T22:19:25.104Z,13.37
2018-02-19T22:21:53.410Z,13.60
2018-02-19T22:24:21.850Z,14.77
2018-02-19T22:26:50.987Z,15.03
2018-02-19T22:29:19.483Z,13.93
2018-02-19T22:31:47.773Z,14.17
2018-02-19T22:34:16.099Z,14.37
2018-02-19T22:36:45.227Z,14.63
2018-02-19T22:39:13.840Z,13.90
2018-02-19T22:41:42.164Z,15.53
2018-02-19T22:44:12.372Z,15.00
2018-02-19T22:46:40.762Z,15.07
2018-02-19T22:49:09.315Z,13.40
2018-02-19T22:51:38.426Z,14.27
2018-02-19T22:54:07.727Z,15.13
2018-02-19T22:56:36.391Z,13.93
2018-02-19T22:59:04.857Z,15.93
2018-02-19T23:01:33.200Z,13.57
2018-02-19T23:04:01.754Z,15.23
2018-02-19T23:06:30.071Z,14.63
2018-02-19T23:08:59.333Z,15.53
2018-02-19T23:11:28.556Z,14.23
2018-02-19T23:13:57.053Z,15.83
2018-02-19T23:16:25.320Z,15.50
2018-02-19T23:18:54.340Z,14.37
2018-02-19T23:21:24.176Z,16.60
2018-02-19T23:23:52.440Z,14.13
2018-02-19T23:26:20.704Z,14.93
2018-02-19T23:28:48.951Z,15.77
2018-02-19T23:31:17.236Z,15.67
2018-02-19T23:33:45.500Z,15.73
2018-02-19T23:36:14.566Z,16.23
2018-02-19T23:38:42.864Z,17.07
2018-02-19T23:41:11.934Z,14.57
2018-02-19T23:43:40.219Z,17.23
2018-02-19T23:46:08.529Z,17.30
2018-02-19T23:48:36.812Z,15.83
2018-02-19T23:51:05.091Z,16.67
2018-02-19T23:53:33.361Z,15.93
2018-02-19T23:56:01.637Z,16.47
2018-02-19T23:58:30.664Z,16.43
